Time;durP1;ratioP1;P1;durP2;ratioP2;P2;SDS_P1;SDS_P2;PMS_P1;PMS_P2;Temp;Humidity;BMP_temperature;BMP_pressure;BME280_temperature;BME280_humidity;BME280_pressure;Samples;Min_cycle;Max_cycle;Signal;HPM_P1;HPM_P2
2021/08/20 00:02:13;;;;;;;4.17;2.43;;;;;;;;;;5031616;28;20307;-80
2021/08/20 00:04:42;;;;;;;2.67;2.33;;;;;;;;;;5032359;28;20228;-80
2021/08/20 00:07:09;;;;;;;3.97;2.70;;;;;;;;;;5031179;28;20205;-80
2021/08/20 00:09:36;;;;;;;3.43;3.03;;;;;;;;;;5034056;28;20283;-80
2021/08/20 00:12:04;;;;;;;3.37;2.93;;;;;;;;;;5031444;28;20224;-80
2021/08/20 00:14:31;;;;;;;3.00;2.70;;;;;;;;;;5036660;28;20231;-80
2021/08/20 00:16:58;;;;;;;5.47;3.10;;;;;;;;;;5031391;28;20288;-80
2021/08/20 00:19:25;;;;;;;3.80;3.00;;;;;;;;;;5033841;28;20232;-80
2021/08/20 00:21:54;;;;;;;3.57;2.87;;;;;;;;;;5051053;28;20614;-81
2021/08/20 00:24:21;;;;;;;3.30;2.80;;;;;;;;;;5047325;28;20635;-80
2021/08/20 00:26:49;;;;;;;3.90;2.67;;;;;;;;;;5051463;28;20227;-80
2021/08/20 00:29:16;;;;;;;3.10;2.70;;;;;;;;;;5052115;28;20203;-80
2021/08/20 00:31:43;;;;;;;3.47;2.90;;;;;;;;;;5043721;28;20232;-80
2021/08/20 00:34:10;;;;;;;3.13;2.70;;;;;;;;;;5052744;28;20320;-81
2021/08/20 00:36:37;;;;;;;3.40;2.90;;;;;;;;;;5034823;28;20293;-81
2021/08/20 00:39:06;;;;;;;2.97;2.60;;;;;;;;;;5020114;28;20250;-80
2021/08/20 00:41:33;;;;;;;3.60;2.93;;;;;;;;;;5036854;28;20238;-80
2021/08/20 00:44:01;;;;;;;3.13;2.83;;;;;;;;;;5039350;28;20287;-80
2021/08/20 00:46:28;;;;;;;3.50;3.00;;;;;;;;;;5036322;28;20452;-80
2021/08/20 00:48:55;;;;;;;3.70;2.87;;;;;;;;;;5035162;28;20232;-80
2021/08/20 00:51:24;;;;;;;3.97;3.00;;;;;;;;;;5034555;28;20239;-80
2021/08/20 00:53:52;;;;;;;4.68;2.70;;;;;;;;;;5035029;28;20239;-80
2021/08/20 00:56:21;;;;;;;3.38;2.90;;;;;;;;;;5043338;28;20278;-80
2021/08/20 00:58:49;;;;;;;4.90;3.10;;;;;;;;;;5054687;28;20291;-80
2021/08/20 01:01:16;;;;;;;3.83;3.00;;;;;;;;;;5049791;28;20196;-80
2021/08/20 01:03:43;;;;;;;3.93;3.30;;;;;;;;;;5052504;28;20294;-80
2021/08/20 01:06:11;;;;;;;4.17;3.33;;;;;;;;;;5038320;28;20305;-80
2021/08/20 01:08:39;;;;;;;3.60;3.10;;;;;;;;;;5053835;28;20239;-80
2021/08/20 01:11:07;;;;;;;5.07;2.90;;;;;;;;;;5054199;28;20262;-81
2021/08/20 01:13:37;;;;;;;5.00;3.30;;;;;;;;;;5054124;28;20290;-80
2021/08/20 01:16:05;;;;;;;3.20;2.90;;;;;;;;;;5048613;28;20249;-80
2021/08/20 01:18:33;;;;;;;3.13;2.83;;;;;;;;;;5046408;28;20276;-81
2021/08/20 01:21:01;;;;;;;3.53;2.90;;;;;;;;;;5033978;28;20320;-81
2021/08/20 01:23:29;;;;;;;4.20;3.03;;;;;;;;;;5034617;28;20300;-80
2021/08/20 01:25:58;;;;;;;3.10;2.80;;;;;;;;;;5036517;28;20311;-80
2021/08/20 01:28:25;;;;;;;5.03;3.07;;;;;;;;;;5054473;28;20227;-80
2021/08/20 01:30:52;;;;;;;4.13;2.90;;;;;;;;;;5045702;28;20284;-80
2021/08/20 01:33:21;;;;;;;4.13;2.97;;;;;;;;;;5034023;28;20303;-81
2021/08/20 01:35:48;;;;;;;3.87;3.00;;;;;;;;;;5034403;28;20201;-80
2021/08/20 01:38:15;;;;;;;3.50;2.63;;;;;;;;;;5052867;28;20282;-80
2021/08/20 01:40:42;;;;;;;3.93;2.90;;;;;;;;;;5042219;28;20649;-80
2021/08/20 01:43:11;;;;;;;4.67;2.97;;;;;;;;;;5048569;28;20582;-81
2021/08/20 01:45:38;;;;;;;3.73;3.20;;;;;;;;;;5053410;28;20216;-81
2021/08/20 01:48:06;;;;;;;3.60;2.93;;;;;;;;;;5047185;28;20282;-81
2021/08/20 01:50:34;;;;;;;4.47;3.20;;;;;;;;;;5050609;28;20227;-80
2021/08/20 01:53:08;;;;;;;4.20;3.00;;;;;;;;;;5053538;28;20238;-81
2021/08/20 01:55:35;;;;;;;4.93;2.77;;;;;;;;;;5040165;28;20287;-81
2021/08/20 01:58:03;;;;;;;4.37;3.20;;;;;;;;;;5040598;28;20203;-80
2021/08/20 02:00:31;;;;;;;6.40;3.10;;;;;;;;;;5053463;28;20310;-80
2021/08/20 02:02:59;;;;;;;3.40;3.10;;;;;;;;;;5052523;28;20251;-80
2021/08/20 02:05:26;;;;;;;3.97;2.83;;;;;;;;;;5037655;28;20251;-80
2021/08/20 02:07:53;;;;;;;3.70;2.90;;;;;;;;;;5033259;28;20299;-80
2021/08/20 02:10:20;;;;;;;7.87;3.07;;;;;;;;;;5033964;28;20238;-80
2021/08/20 02:12:47;;;;;;;3.53;2.83;;;;;;;;;;5033079;28;20283;-80
2021/08/20 02:15:15;;;;;;;5.67;3.00;;;;;;;;;;5047873;28;20710;-80
2021/08/20 02:17:43;;;;;;;4.17;3.37;;;;;;;;;;5052478;28;20218;-80
2021/08/20 02:20:11;;;;;;;5.37;3.07;;;;;;;;;;5045227;28;20715;-80
2021/08/20 02:22:39;;;;;;;5.60;3.50;;;;;;;;;;5032820;28;20647;-80
2021/08/20 02:25:06;;;;;;;4.73;3.10;;;;;;;;;;5032854;28;20200;-80
2021/08/20 02:27:33;;;;;;;5.40;3.17;;;;;;;;;;5033044;28;20288;-80
2021/08/20 02:30:00;;;;;;;4.57;3.40;;;;;;;;;;5038255;28;20283;-80
2021/08/20 02:32:28;;;;;;;5.00;3.67;;;;;;;;;;5052653;28;20290;-80
2021/08/20 02:34:56;;;;;;;3.97;3.57;;;;;;;;;;5039904;28;20232;-80
2021/08/20 02:37:23;;;;;;;4.50;3.85;;;;;;;;;;5052715;28;20618;-80
2021/08/20 02:39:51;;;;;;;5.30;3.90;;;;;;;;;;5052597;28;20246;-80
2021/08/20 02:42:18;;;;;;;4.07;3.67;;;;;;;;;;5052303;28;20235;-80
2021/08/20 02:44:45;;;;;;;5.67;3.93;;;;;;;;;;5051390;28;20207;-80
2021/08/20 02:47:12;;;;;;;4.17;3.77;;;;;;;;;;5049174;28;20302;-80
2021/08/20 02:49:39;;;;;;;6.47;4.30;;;;;;;;;;5049648;28;20231;-80
2021/08/20 02:52:08;;;;;;;4.93;4.27;;;;;;;;;;5039718;28;20290;-80
2021/08/20 02:54:35;;;;;;;7.43;4.40;;;;;;;;;;5052698;28;20287;-80
2021/08/20 02:57:03;;;;;;;7.30;4.67;;;;;;;;;;5049044;28;20270;-80
2021/08/20 02:59:30;;;;;;;5.07;4.40;;;;;;;;;;5044350;28;20631;-80
2021/08/20 03:01:58;;;;;;;6.00;4.20;;;;;;;;;;5036728;28;20307;-80
2021/08/20 03:04:25;;;;;;;6.20;4.10;;;;;;;;;;5032485;28;20679;-80
2021/08/20 03:06:53;;;;;;;6.50;4.70;;;;;;;;;;5032062;28;20224;-80
2021/08/20 03:09:22;;;;;;;6.93;4.40;;;;;;;;;;5043042;28;20294;-80
2021/08/20 03:11:49;;;;;;;5.87;4.30;;;;;;;;;;5051979;28;20659;-80
2021/08/20 03:14:17;;;;;;;5.03;4.27;;;;;;;;;;5044032;28;20203;-80
2021/08/20 03:16:44;;;;;;;5.60;4.20;;;;;;;;;;5038512;28;20246;-80
2021/08/20 03:19:12;;;;;;;6.15;4.18;;;;;;;;;;5050575;28;20776;-80
2021/08/20 03:21:39;;;;;;;4.63;3.80;;;;;;;;;;5031561;28;20704;-79
2021/08/20 03:24:06;;;;;;;6.30;4.00;;;;;;;;;;5031992;28;20231;-80
2021/08/20 03:26:35;;;;;;;4.75;3.80;;;;;;;;;;5031840;28;20384;-80
2021/08/20 03:29:02;;;;;;;3.95;3.58;;;;;;;;;;5031919;28;20287;-80
2021/08/20 03:31:29;;;;;;;4.40;3.53;;;;;;;;;;5031789;28;20224;-80
2021/08/20 03:33:57;;;;;;;6.05;3.90;;;;;;;;;;5032016;28;20303;-80
2021/08/20 03:36:24;;;;;;;5.00;3.63;;;;;;;;;;5032281;28;20283;-80
2021/08/20 03:38:52;;;;;;;3.72;3.38;;;;;;;;;;5031755;28;20684;-80
2021/08/20 03:41:19;;;;;;;4.40;4.00;;;;;;;;;;5032096;28;20288;-80
2021/08/20 03:43:48;;;;;;;5.10;3.45;;;;;;;;;;5031954;28;20230;-80
2021/08/20 03:46:15;;;;;;;4.30;3.90;;;;;;;;;;5040961;28;20298;-80
2021/08/20 03:48:43;;;;;;;7.32;3.60;;;;;;;;;;5045763;28;20283;-80
2021/08/20 03:51:10;;;;;;;5.05;3.38;;;;;;;;;;5031895;28;20201;-80
2021/08/20 03:53:37;;;;;;;4.32;3.60;;;;;;;;;;5031684;28;20291;-79
2021/08/20 03:56:05;;;;;;;4.28;3.55;;;;;;;;;;5031573;28;20282;-80
2021/08/20 03:58:32;;;;;;;4.03;3.63;;;;;;;;;;5031572;28;20630;-80
2021/08/20 04:01:00;;;;;;;4.05;3.30;;;;;;;;;;5031801;28;20246;-80
2021/08/20 04:03:27;;;;;;;4.50;3.55;;;;;;;;;;5044515;28;20224;-80
2021/08/20 04:05:55;;;;;;;4.13;3.72;;;;;;;;;;5041550;28;20204;-80
2021/08/20 04:08:22;;;;;;;5.50;3.60;;;;;;;;;;5047239;28;20645;-80
2021/08/20 04:10:49;;;;;;;5.97;3.90;;;;;;;;;;5046305;28;20283;-80
2021/08/20 04:13:17;;;;;;;5.25;3.83;;;;;;;;;;5049762;28;20292;-80
2021/08/20 04:15:44;;;;;;;4.32;3.53;;;;;;;;;;5034363;28;20200;-80
2021/08/20 04:18:13;;;;;;;5.55;3.60;;;;;;;;;;5035329;28;20295;-80
2021/08/20 04:20:42;;;;;;;3.95;3.47;;;;;;;;;;5035309;28;20224;-80
2021/08/20 04:23:09;;;;;;;5.25;3.60;;;;;;;;;;5035168;28;20200;-80
2021/08/20 04:25:36;;;;;;;4.50;3.43;;;;;;;;;;5035132;28;20628;-80
2021/08/20 04:28:04;;;;;;;4.68;3.45;;;;;;;;;;5034950;28;20274;-80
2021/08/20 04:30:32;;;;;;;3.87;3.47;;;;;;;;;;5035284;28;20441;-80
2021/08/20 04:33:00;;;;;;;6.20;3.53;;;;;;;;;;5042072;28;20210;-80
2021/08/20 04:35:28;;;;;;;5.80;3.90;;;;;;;;;;5045556;28;20204;-80
2021/08/20 04:37:56;;;;;;;4.93;3.90;;;;;;;;;;5054944;28;20298;-80
2021/08/20 04:40:23;;;;;;;4.00;3.60;;;;;;;;;;5040923;28;20370;-80
2021/08/20 04:42:50;;;;;;;5.25;3.58;;;;;;;;;;5042933;28;20330;-80
2021/08/20 04:45:18;;;;;;;4.07;3.65;;;;;;;;;;5054796;28;20234;-80
2021/08/20 04:47:45;;;;;;;5.82;3.72;;;;;;;;;;5053885;28;20306;-80
2021/08/20 04:50:14;;;;;;;5.13;3.60;;;;;;;;;;5054636;28;20231;-80
2021/08/20 04:52:42;;;;;;;5.32;3.95;;;;;;;;;;5054584;28;20244;-80
2021/08/20 04:55:10;;;;;;;5.88;3.60;;;;;;;;;;5042184;28;20236;-81
2021/08/20 04:57:37;;;;;;;5.07;3.80;;;;;;;;;;5038054;28;20195;-81
2021/08/20 05:00:07;;;;;;;4.40;3.50;;;;;;;;;;5054752;28;20234;-80
2021/08/20 05:02:35;;;;;;;4.77;3.97;;;;;;;;;;5043010;28;20312;-79
2021/08/20 05:05:02;;;;;;;6.82;3.80;;;;;;;;;;5034307;28;20304;-80
2021/08/20 05:07:30;;;;;;;4.68;4.18;;;;;;;;;;5045538;28;20322;-80
2021/08/20 05:10:02;;;;;;;4.75;4.07;;;;;;;;;;5048425;28;20287;-80
2021/08/20 05:12:29;;;;;;;4.67;3.93;;;;;;;;;;5034283;28;20258;-80
2021/08/20 05:14:56;;;;;;;4.68;3.60;;;;;;;;;;5048415;28;20290;-79
2021/08/20 05:17:23;;;;;;;5.05;4.00;;;;;;;;;;5054032;28;20223;-80
2021/08/20 05:19:50;;;;;;;5.85;3.60;;;;;;;;;;5054146;28;20235;-80
2021/08/20 05:22:18;;;;;;;4.65;3.85;;;;;;;;;;5053275;28;20318;-79
2021/08/20 05:24:45;;;;;;;4.60;3.85;;;;;;;;;;5048433;28;20200;-79
2021/08/20 05:27:14;;;;;;;4.95;4.07;;;;;;;;;;5041732;28;20315;-79
2021/08/20 05:29:41;;;;;;;4.60;4.07;;;;;;;;;;5053751;28;20291;-79
2021/08/20 05:32:08;;;;;;;6.72;4.53;;;;;;;;;;5053948;28;20291;-79
2021/08/20 05:34:36;;;;;;;5.37;4.00;;;;;;;;;;5053756;28;20247;-78
2021/08/20 05:37:03;;;;;;;4.95;4.03;;;;;;;;;;5053623;28;20196;-79
2021/08/20 05:39:31;;;;;;;5.10;4.22;;;;;;;;;;5034611;28;20232;-79
2021/08/20 05:41:58;;;;;;;5.47;4.05;;;;;;;;;;5033642;28;20204;-79
2021/08/20 05:44:26;;;;;;;6.10;4.23;;;;;;;;;;5041519;28;20287;-79
2021/08/20 05:46:53;;;;;;;5.38;4.07;;;;;;;;;;5052153;28;20668;-78
2021/08/20 05:49:21;;;;;;;5.90;4.30;;;;;;;;;;5048338;28;20236;-78
2021/08/20 05:51:48;;;;;;;5.70;4.32;;;;;;;;;;5033800;28;20235;-78
2021/08/20 05:54:15;;;;;;;5.55;4.40;;;;;;;;;;5033738;28;20211;-79
2021/08/20 05:56:42;;;;;;;6.80;4.25;;;;;;;;;;5033238;28;20204;-79
2021/08/20 05:59:10;;;;;;;5.93;4.00;;;;;;;;;;5033836;28;20291;-79
2021/08/20 06:01:39;;;;;;;7.30;4.40;;;;;;;;;;5036559;28;20596;-80
2021/08/20 06:04:06;;;;;;;5.78;4.15;;;;;;;;;;5053681;28;20277;-80
2021/08/20 06:06:33;;;;;;;6.55;4.30;;;;;;;;;;5047989;28;20591;-80
2021/08/20 06:09:00;;;;;;;6.73;4.53;;;;;;;;;;5049860;28;20204;-81
2021/08/20 06:11:27;;;;;;;5.88;4.35;;;;;;;;;;5052607;28;20227;-82
2021/08/20 06:13:55;;;;;;;6.10;4.30;;;;;;;;;;5052415;28;20286;-81
2021/08/20 06:16:22;;;;;;;5.40;4.55;;;;;;;;;;5038404;28;20292;-82
2021/08/20 06:18:51;;;;;;;6.20;4.57;;;;;;;;;;5033180;28;20679;-81
2021/08/20 06:21:18;;;;;;;4.50;4.10;;;;;;;;;;5032845;28;20750;-81
2021/08/20 06:23:45;;;;;;;6.10;5.15;;;;;;;;;;5037008;28;20227;-81
2021/08/20 06:26:12;;;;;;;5.40;4.87;;;;;;;;;;5052642;28;20792;-81
2021/08/20 06:28:39;;;;;;;6.27;5.00;;;;;;;;;;5052415;28;20263;-81
2021/08/20 06:31:06;;;;;;;7.13;5.43;;;;;;;;;;5037954;28;20296;-81
2021/08/20 06:33:34;;;;;;;5.80;4.97;;;;;;;;;;5032641;28;20196;-81
2021/08/20 06:36:03;;;;;;;7.10;5.43;;;;;;;;;;5032779;28;20193;-80
2021/08/20 06:38:30;;;;;;;5.87;4.83;;;;;;;;;;5032622;28;20246;-81
2021/08/20 06:40:58;;;;;;;6.57;5.00;;;;;;;;;;5032892;28;20282;-81
2021/08/20 06:43:25;;;;;;;7.88;4.97;;;;;;;;;;5032749;28;20292;-81
2021/08/20 06:45:54;;;;;;;7.13;5.67;;;;;;;;;;5032756;28;20296;-81
2021/08/20 06:48:21;;;;;;;7.73;4.80;;;;;;;;;;5033729;28;20719;-82
2021/08/20 06:50:49;;;;;;;6.33;5.17;;;;;;;;;;5032932;28;20247;-81
2021/08/20 06:53:19;;;;;;;8.50;5.00;;;;;;;;;;5033529;28;20201;-81
2021/08/20 06:55:46;;;;;;;7.15;5.30;;;;;;;;;;5034155;28;20587;-81
2021/08/20 06:58:13;;;;;;;6.30;4.80;;;;;;;;;;5036261;28;20200;-82
2021/08/20 07:00:40;;;;;;;7.07;5.07;;;;;;;;;;5042058;28;20240;-81
2021/08/20 07:03:07;;;;;;;7.97;5.63;;;;;;;;;;5053020;28;20302;-81
2021/08/20 07:05:35;;;;;;;7.03;5.53;;;;;;;;;;5033145;28;20244;-82
2021/08/20 07:08:02;;;;;;;7.07;5.45;;;;;;;;;;5033415;28;20263;-81
2021/08/20 07:10:30;;;;;;;6.80;5.43;;;;;;;;;;5033735;28;20232;-82
2021/08/20 07:12:58;;;;;;;7.90;5.60;;;;;;;;;;5040332;28;20227;-81
2021/08/20 07:15:25;;;;;;;8.02;5.90;;;;;;;;;;5053431;28;20215;-82
2021/08/20 07:17:52;;;;;;;6.82;5.40;;;;;;;;;;5052811;28;20206;-82
2021/08/20 07:20:21;;;;;;;6.60;5.30;;;;;;;;;;5053006;28;20235;-82
2021/08/20 07:22:49;;;;;;;5.57;5.00;;;;;;;;;;5048011;28;20235;-81
2021/08/20 07:25:16;;;;;;;8.35;5.57;;;;;;;;;;5033759;28;20253;-81
2021/08/20 07:27:45;;;;;;;8.85;5.50;;;;;;;;;;5034252;28;20228;-81
2021/08/20 07:30:13;;;;;;;7.20;5.60;;;;;;;;;;5033714;28;20331;-82
2021/08/20 07:32:40;;;;;;;6.72;5.53;;;;;;;;;;5033500;28;20278;-81
2021/08/20 07:35:08;;;;;;;8.57;5.93;;;;;;;;;;5033776;28;20219;-82
2021/08/20 07:37:35;;;;;;;8.75;5.75;;;;;;;;;;5034256;28;20330;-82
2021/08/20 07:40:02;;;;;;;9.43;5.72;;;;;;;;;;5037985;28;20299;-82
2021/08/20 07:42:29;;;;;;;7.18;5.35;;;;;;;;;;5037383;28;20236;-82
2021/08/20 07:44:58;;;;;;;9.20;5.60;;;;;;;;;;5037190;28;20855;-81
2021/08/20 07:47:25;;;;;;;7.85;5.45;;;;;;;;;;5038021;28;20293;-82
2021/08/20 07:49:53;;;;;;;7.30;6.57;;;;;;;;;;5038375;28;20238;-82
2021/08/20 07:52:20;;;;;;;8.00;6.57;;;;;;;;;;5037605;28;20353;-82
2021/08/20 07:54:47;;;;;;;8.77;6.35;;;;;;;;;;5038000;28;20679;-82
2021/08/20 07:57:15;;;;;;;7.88;5.60;;;;;;;;;;5037182;28;20200;-81
2021/08/20 07:59:42;;;;;;;8.15;5.97;;;;;;;;;;5038305;28;20201;-82
2021/08/20 08:02:11;;;;;;;8.20;6.15;;;;;;;;;;5036016;28;20255;-80
2021/08/20 08:04:38;;;;;;;8.70;5.72;;;;;;;;;;5036505;28;20200;-80
2021/08/20 08:07:05;;;;;;;8.05;6.07;;;;;;;;;;5041423;28;21933;-80
2021/08/20 08:09:33;;;;;;;8.07;6.00;;;;;;;;;;5038296;28;20258;-80
2021/08/20 08:12:00;;;;;;;9.50;5.82;;;;;;;;;;5035817;28;20240;-80
2021/08/20 08:14:29;;;;;;;8.00;6.15;;;;;;;;;;5039484;28;20280;-78
2021/08/20 08:16:56;;;;;;;7.45;5.97;;;;;;;;;;5040717;28;20562;-78
2021/08/20 08:19:25;;;;;;;7.28;5.40;;;;;;;;;;5043473;28;20196;-78
2021/08/20 08:21:52;;;;;;;7.22;5.43;;;;;;;;;;5043631;28;20315;-78
2021/08/20 08:24:21;;;;;;;7.13;4.95;;;;;;;;;;5043880;28;20231;-82
2021/08/20 08:26:48;;;;;;;6.85;5.38;;;;;;;;;;5043732;28;20270;-78
2021/08/20 08:29:16;;;;;;;7.05;5.40;;;;;;;;;;5049838;28;20307;-79
2021/08/20 08:31:43;;;;;;;6.97;6.03;;;;;;;;;;5034670;28;20283;-78
2021/08/20 08:34:10;;;;;;;9.68;5.85;;;;;;;;;;5035300;28;20293;-78
2021/08/20 08:36:38;;;;;;;6.85;5.45;;;;;;;;;;5035140;28;20220;-79
2021/08/20 08:39:06;;;;;;;8.07;5.22;;;;;;;;;;5035557;28;20340;-78
2021/08/20 08:41:33;;;;;;;5.75;5.15;;;;;;;;;;5035188;28;20291;-78
2021/08/20 08:44:00;;;;;;;5.55;4.60;;;;;;;;;;5035422;28;20736;-78
2021/08/20 08:46:29;;;;;;;6.07;4.97;;;;;;;;;;5038771;28;20286;-78
2021/08/20 08:48:56;;;;;;;6.57;5.07;;;;;;;;;;5055098;28;20231;-78
2021/08/20 08:51:24;;;;;;;7.95;5.68;;;;;;;;;;5054054;28;20294;-78
2021/08/20 08:53:52;;;;;;;6.10;5.50;;;;;;;;;;5055160;28;20286;-78
2021/08/20 08:56:20;;;;;;;7.63;5.95;;;;;;;;;;5054736;28;20643;-78
2021/08/20 08:58:47;;;;;;;8.65;5.88;;;;;;;;;;5054920;28;20192;-78
2021/08/20 09:01:27;;;;;;;6.72;4.93;;;;;;;;;;5052908;28;20605;-79
2021/08/20 09:04:07;;;;;;;5.60;5.00;;;;;;;;;;5034569;28;20287;-78
2021/08/20 09:06:37;;;;;;;7.95;5.00;;;;;;;;;;5034915;28;20262;-78
2021/08/20 09:09:06;;;;;;;5.63;5.00;;;;;;;;;;5034960;28;20220;-78
2021/08/20 09:11:34;;;;;;;5.30;4.80;;;;;;;;;;5034592;28;20204;-78
2021/08/20 09:14:01;;;;;;;6.90;4.80;;;;;;;;;;5034807;28;20291;-78
2021/08/20 09:16:35;;;;;;;5.93;4.40;;;;;;;;;;5034774;28;20291;-78
2021/08/20 09:19:10;;;;;;;5.57;5.00;;;;;;;;;;5034278;28;20238;-78
2021/08/20 09:21:37;;;;;;;5.38;4.55;;;;;;;;;;5034291;28;20285;-77
2021/08/20 09:24:10;;;;;;;6.88;4.60;;;;;;;;;;5034695;28;20201;-78
2021/08/20 09:26:38;;;;;;;6.13;5.05;;;;;;;;;;5034265;28;20292;-78
2021/08/20 09:29:12;;;;;;;6.40;4.30;;;;;;;;;;5034619;28;20259;-79
2021/08/20 09:31:50;;;;;;;5.10;4.60;;;;;;;;;;5034377;28;20199;-79
2021/08/20 09:34:18;;;;;;;5.63;4.25;;;;;;;;;;5034270;28;20215;-79
2021/08/20 09:36:45;;;;;;;6.80;4.38;;;;;;;;;;5049217;28;20286;-78
2021/08/20 09:39:14;;;;;;;6.45;4.43;;;;;;;;;;5045629;28;20690;-78
2021/08/20 09:41:44;;;;;;;5.35;4.20;;;;;;;;;;5034281;28;20247;-79
2021/08/20 09:44:24;;;;;;;4.82;3.72;;;;;;;;;;5040724;28;20216;-78
2021/08/20 09:46:55;;;;;;;5.57;3.60;;;;;;;;;;5053902;28;20677;-79
2021/08/20 09:49:22;;;;;;;7.00;4.45;;;;;;;;;;5054059;28;20550;-78
2021/08/20 09:51:50;;;;;;;7.32;4.22;;;;;;;;;;5053738;28;20231;-78
2021/08/20 09:54:21;;;;;;;4.38;3.80;;;;;;;;;;5053977;28;20290;-78
2021/08/20 09:56:48;;;;;;;4.80;3.90;;;;;;;;;;5053650;28;20582;-78
2021/08/20 09:59:16;;;;;;;6.05;4.13;;;;;;;;;;5045417;28;20756;-78
2021/08/20 10:01:45;;;;;;;5.40;4.03;;;;;;;;;;5031995;28;20567;-78
2021/08/20 10:04:12;;;;;;;5.20;3.60;;;;;;;;;;5036063;28;20543;-78
2021/08/20 10:06:41;;;;;;;3.80;3.40;;;;;;;;;;5033469;28;20199;-79
2021/08/20 10:09:09;;;;;;;5.05;3.72;;;;;;;;;;5038202;28;20315;-78
2021/08/20 10:11:40;;;;;;;5.25;4.25;;;;;;;;;;5044104;28;20355;-78
2021/08/20 10:14:08;;;;;;;5.82;4.13;;;;;;;;;;5049723;28;20300;-78
2021/08/20 10:16:36;;;;;;;5.30;4.28;;;;;;;;;;5037648;28;20283;-78
2021/08/20 10:19:05;;;;;;;6.97;4.13;;;;;;;;;;5033766;28;20330;-77
2021/08/20 10:21:34;;;;;;;7.03;4.20;;;;;;;;;;5030338;28;20794;-78
2021/08/20 10:24:02;;;;;;;4.38;3.75;;;;;;;;;;5042528;28;20286;-77
2021/08/20 10:26:29;;;;;;;7.55;4.30;;;;;;;;;;5032468;28;20334;-77
2021/08/20 10:28:58;;;;;;;6.47;3.67;;;;;;;;;;5044837;28;20725;-77
2021/08/20 10:31:26;;;;;;;4.13;3.60;;;;;;;;;;5033452;28;20259;-76
2021/08/20 10:33:53;;;;;;;5.65;4.07;;;;;;;;;;5031740;28;20302;-77
2021/08/20 10:36:35;;;;;;;7.57;4.05;;;;;;;;;;5031687;28;20203;-76
2021/08/20 10:39:03;;;;;;;5.55;3.67;;;;;;;;;;5042296;28;20208;-77
2021/08/20 10:41:30;;;;;;;3.80;3.50;;;;;;;;;;4683734;28;9999643;-77
2021/08/20 10:44:00;;;;;;;4.15;3.50;;;;;;;;;;5030204;28;20278;-77
2021/08/20 10:46:45;;;;;;;5.53;4.15;;;;;;;;;;5028768;28;20196;-77
2021/08/20 10:49:20;;;;;;;5.15;3.47;;;;;;;;;;5021906;28;20220;-77
2021/08/20 10:52:00;;;;;;;5.65;3.60;;;;;;;;;;5028899;28;20203;-77
2021/08/20 10:54:45;;;;;;;5.03;3.92;;;;;;;;;;5029330;28;20250;-77
2021/08/20 10:57:43;;;;;;;4.20;3.50;;;;;;;;;;5036261;28;20202;-77
2021/08/20 11:00:24;;;;;;;3.80;3.40;;;;;;;;;;5027932;28;20801;-77
2021/08/20 11:02:52;;;;;;;4.15;3.55;;;;;;;;;;5025246;28;20338;-76
2021/08/20 11:05:21;;;;;;;5.30;3.80;;;;;;;;;;5038118;28;20204;-76
2021/08/20 11:07:49;;;;;;;4.05;3.33;;;;;;;;;;5032572;28;20205;-76
2021/08/20 11:10:33;;;;;;;4.25;3.85;;;;;;;;;;5029455;28;20220;-77
2021/08/20 11:13:01;;;;;;;4.57;2.97;;;;;;;;;;5026878;28;20320;-77
2021/08/20 11:15:45;;;;;;;6.10;3.60;;;;;;;;;;5033590;28;20204;-76
2021/08/20 11:18:13;;;;;;;5.63;3.80;;;;;;;;;;5029621;28;20303;-76
2021/08/20 11:20:42;;;;;;;5.68;3.63;;;;;;;;;;5030388;28;20200;-76
2021/08/20 11:23:17;;;;;;;4.53;3.67;;;;;;;;;;5028868;28;20270;-77
2021/08/20 11:25:45;;;;;;;4.03;2.95;;;;;;;;;;5028563;28;20701;-76
2021/08/20 11:28:17;;;;;;;4.10;2.92;;;;;;;;;;5028444;28;20314;-76
2021/08/20 11:30:46;;;;;;;4.35;3.05;;;;;;;;;;5030025;28;20223;-76
2021/08/20 11:33:18;;;;;;;4.45;3.40;;;;;;;;;;5029131;28;20574;-76
2021/08/20 11:35:48;;;;;;;4.43;3.58;;;;;;;;;;5030847;28;20246;-76
2021/08/20 11:38:21;;;;;;;6.45;3.40;;;;;;;;;;5030207;28;20287;-76
2021/08/20 11:40:49;;;;;;;5.00;3.20;;;;;;;;;;5031246;28;20203;-76
2021/08/20 11:43:16;;;;;;;4.30;3.58;;;;;;;;;;5032317;28;20286;-77
2021/08/20 11:45:43;;;;;;;3.50;3.20;;;;;;;;;;5030824;28;20207;-77
2021/08/20 11:48:12;;;;;;;3.92;3.00;;;;;;;;;;5031215;28;20290;-78
2021/08/20 11:50:40;;;;;;;2.70;2.50;;;;;;;;;;5032003;28;20197;-76
2021/08/20 11:53:08;;;;;;;3.35;3.00;;;;;;;;;;5030177;28;20291;-77
2021/08/20 11:55:36;;;;;;;3.47;2.90;;;;;;;;;;5030552;28;20192;-76
2021/08/20 11:58:03;;;;;;;2.80;2.50;;;;;;;;;;5039924;28;20283;-77
2021/08/20 12:00:37;;;;;;;2.75;2.47;;;;;;;;;;5031216;28;20283;-77
2021/08/20 12:03:08;;;;;;;4.05;2.50;;;;;;;;;;5031233;28;20219;-76
2021/08/20 12:05:37;;;;;;;3.90;2.20;;;;;;;;;;5036787;28;20292;-76
2021/08/20 12:08:15;;;;;;;3.45;1.98;;;;;;;;;;5042585;28;20283;-76
2021/08/20 12:10:43;;;;;;;2.05;1.70;;;;;;;;;;5042337;28;20840;-77
2021/08/20 12:13:12;;;;;;;1.70;1.52;;;;;;;;;;5030969;28;20305;-76
2021/08/20 12:15:40;;;;;;;2.17;1.98;;;;;;;;;;5030721;28;20196;-77
2021/08/20 12:18:28;;;;;;;3.38;1.85;;;;;;;;;;5031288;28;20207;-77
2021/08/20 12:20:57;;;;;;;2.47;1.60;;;;;;;;;;5027942;28;20719;-77
2021/08/20 12:23:25;;;;;;;2.38;1.58;;;;;;;;;;5030928;28;20200;-76
2021/08/20 12:25:52;;;;;;;2.55;1.52;;;;;;;;;;5032709;28;20775;-77
2021/08/20 12:28:20;;;;;;;2.53;1.90;;;;;;;;;;5034542;28;20674;-77
2021/08/20 12:30:48;;;;;;;2.08;1.65;;;;;;;;;;5034703;28;20223;-77
2021/08/20 12:33:16;;;;;;;5.45;2.17;;;;;;;;;;5036679;28;20840;-77
2021/08/20 12:35:53;;;;;;;2.95;1.77;;;;;;;;;;5035615;28;20694;-77
2021/08/20 12:38:22;;;;;;;1.77;1.40;;;;;;;;;;5032621;28;20287;-77
2021/08/20 12:40:50;;;;;;;1.65;1.40;;;;;;;;;;5038122;28;20228;-76
2021/08/20 12:43:28;;;;;;;1.60;1.25;;;;;;;;;;5034268;28;20243;-76
2021/08/20 12:46:02;;;;;;;1.75;1.30;;;;;;;;;;5030096;28;20291;-78
2021/08/20 12:48:29;;;;;;;1.92;1.40;;;;;;;;;;5032203;28;20283;-76
2021/08/20 12:50:59;;;;;;;1.50;1.40;;;;;;;;;;5034522;28;20307;-76
2021/08/20 12:53:30;;;;;;;1.75;1.30;;;;;;;;;;5031427;28;20568;-76
2021/08/20 12:56:00;;;;;;;1.92;1.40;;;;;;;;;;5033389;28;20716;-77
2021/08/20 12:58:28;;;;;;;2.22;1.42;;;;;;;;;;5031815;28;20211;-76
2021/08/20 13:00:57;;;;;;;1.88;1.40;;;;;;;;;;5035861;28;20209;-76
2021/08/20 13:03:24;;;;;;;2.28;1.73;;;;;;;;;;5045604;28;20649;-77
2021/08/20 13:05:55;;;;;;;1.67;1.30;;;;;;;;;;5033581;28;20224;-77
2021/08/20 13:08:23;;;;;;;1.38;1.20;;;;;;;;;;5040147;28;20204;-77
2021/08/20 13:10:52;;;;;;;1.92;1.70;;;;;;;;;;5036136;28;20220;-76
2021/08/20 13:13:19;;;;;;;2.83;1.80;;;;;;;;;;5040633;28;20686;-77
2021/08/20 13:15:47;;;;;;;2.15;1.60;;;;;;;;;;5042132;28;20686;-77
2021/08/20 13:18:15;;;;;;;2.63;1.52;;;;;;;;;;5047186;28;20238;-76
2021/08/20 13:20:43;;;;;;;4.88;1.58;;;;;;;;;;5036464;28;20656;-76
2021/08/20 13:23:10;;;;;;;1.50;1.40;;;;;;;;;;5035364;28;20202;-77
2021/08/20 13:25:37;;;;;;;2.45;1.48;;;;;;;;;;5037893;28;20202;-77
2021/08/20 13:28:07;;;;;;;1.77;1.40;;;;;;;;;;5034418;28;20203;-77
2021/08/20 13:30:35;;;;;;;1.35;1.20;;;;;;;;;;5034964;28;20223;-77
2021/08/20 13:33:02;;;;;;;1.60;1.30;;;;;;;;;;5031478;28;20229;-77
2021/08/20 13:35:29;;;;;;;2.33;1.50;;;;;;;;;;5032980;28;20287;-77
2021/08/20 13:37:57;;;;;;;2.40;1.20;;;;;;;;;;5033696;28;20282;-77
2021/08/20 13:40:28;;;;;;;2.00;1.13;;;;;;;;;;5033121;28;20280;-77
2021/08/20 13:42:56;;;;;;;1.75;1.23;;;;;;;;;;5032835;28;20287;-77
2021/08/20 13:45:24;;;;;;;1.40;1.20;;;;;;;;;;5033263;28;20298;-77
2021/08/20 13:47:52;;;;;;;1.05;0.95;;;;;;;;;;5036317;28;20223;-77
2021/08/20 13:50:19;;;;;;;2.55;1.38;;;;;;;;;;5027425;28;20585;-77
2021/08/20 13:52:46;;;;;;;1.58;1.27;;;;;;;;;;5033595;28;20235;-77
2021/08/20 13:55:14;;;;;;;4.55;1.30;;;;;;;;;;5031354;28;20656;-78
2021/08/20 13:57:41;;;;;;;2.25;1.50;;;;;;;;;;5033467;28;20287;-76
2021/08/20 14:00:09;;;;;;;4.07;3.17;;;;;;;;;;5033058;28;20328;-77
2021/08/20 14:02:37;;;;;;;3.08;1.83;;;;;;;;;;5031226;28;20220;-77
2021/08/20 14:05:05;;;;;;;4.18;2.78;;;;;;;;;;5036548;28;20288;-77
2021/08/20 14:07:32;;;;;;;2.90;1.40;;;;;;;;;;5036556;28;20731;-76
2021/08/20 14:09:59;;;;;;;2.00;1.40;;;;;;;;;;5033021;28;20304;-77
2021/08/20 14:12:27;;;;;;;2.58;1.50;;;;;;;;;;5031840;28;20295;-76
2021/08/20 14:14:54;;;;;;;3.35;1.42;;;;;;;;;;5032197;28;20234;-77
2021/08/20 14:17:21;;;;;;;4.32;1.70;;;;;;;;;;5035658;28;20283;-76
2021/08/20 14:19:49;;;;;;;3.03;1.60;;;;;;;;;;5027251;28;20287;-77
2021/08/20 14:22:17;;;;;;;1.40;1.25;;;;;;;;;;5033158;28;20319;-76
2021/08/20 14:24:44;;;;;;;4.25;1.40;;;;;;;;;;5034838;28;20663;-77
2021/08/20 14:27:11;;;;;;;2.03;1.60;;;;;;;;;;5034133;28;20334;-76
2021/08/20 14:29:43;;;;;;;1.27;1.10;;;;;;;;;;5041938;28;20218;-76
2021/08/20 14:32:11;;;;;;;1.67;1.40;;;;;;;;;;5032316;28;20334;-77
2021/08/20 14:34:38;;;;;;;2.47;1.55;;;;;;;;;;5037552;28;20282;-77
2021/08/20 14:37:07;;;;;;;5.47;1.63;;;;;;;;;;5033728;28;20284;-76
2021/08/20 14:39:34;;;;;;;2.03;1.83;;;;;;;;;;5039182;28;20763;-76
2021/08/20 14:42:01;;;;;;;2.67;1.90;;;;;;;;;;5038238;28;20227;-76
2021/08/20 14:44:29;;;;;;;2.80;1.67;;;;;;;;;;5034753;28;20287;-77
2021/08/20 14:46:56;;;;;;;2.47;1.77;;;;;;;;;;5029827;28;20239;-76
2021/08/20 14:49:23;;;;;;;1.70;1.60;;;;;;;;;;5035610;28;20307;-76
2021/08/20 14:51:51;;;;;;;3.63;1.73;;;;;;;;;;5038723;28;20296;-76